Victor Silva

Recruteur - Internacional
31 Déc 2026
Jeudi
Processus

Personnalité

Adaptabilité (11) Ambition (14) Controverse (6) Loyauté (19) Pression (18) Professionnalisme (1) Sportivité (1) Tempérament (10)

Profil

Style d'entraînement Démocratique
Diplôme Continental Pro
Détermination 12
Gestion des joueurs 12
Motivation 13
Discipline 9
Satisfaction professionnelle
66%
Fatigue
0%
Rôle Recruteur
Salaire 79.6K p/s
Contrat 14.03.2029

Performance

Comportement Bon
Efficacité de l'entraînement
27%
Développement des joueurs
30%
Prévention des blessures
45%
Mise en place tactique
35%

Événements récents

A participé à une réunion de recrutement maintenant
A participé à une réunion de recrutement 7j
A participé à une réunion de recrutement 14j
A participé à une réunion de recrutement 21j
A participé à une réunion de recrutement 21j
A participé à une réunion de recrutement 28j
A évalué un joueur 35j
A évalué un joueur 35j

Suivi en cours

55
Joueur Club Statut Capacité Confiance Observé Dernière observation Dernier vote
Adson Vasco da Gama Perdu 131 / 117 55% 1 02.12.2026 -
Rémi Lemoine Chamois Niortais Actif 165 / 154 40% 1 26.11.2026 -
Mario Dorgeles Braga Actif 119 / 133 40% 1 26.11.2026 -
Cristian Medina Botafogo Actif 140 / 135 40% 1 24.11.2026 -
Oleh Ocheretko Shakhtar Actif 146 / 127 40% 1 24.11.2026 -
Lucas Duarte Felgueiras Actif 114 / 98 40% 1 23.11.2026 -
Yousef Salech Cardiff City Actif 137 / 132 40% 1 23.11.2026 -
Yanis Begraoui Estoril Praia Actif 123 / 130 40% 3 21.11.2026 -
Negueba Mirassol Actif 112 / 113 40% 1 21.11.2026 Plus d'infos
Yuri Alberto Corinthians Perdu 130 / 143 40% 2 16.11.2026 Plus d'infos
Khama Dolly Platinum Stars Actif 136 / 127 40% 1 16.11.2026 -
Oumar Camara Vitoria Guimaraes Actif 116 / 130 40% 1 11.11.2026 -
William Gomes Porto Actif 139 / 143 40% 1 11.11.2026 -
Richard Leroux Tours Actif 130 / 117 40% 1 07.11.2026 -
Vinícius Lopes Santa Clara Actif 129 / 119 40% 1 07.11.2026 -
Manu Pozo Torreense Actif 132 / 117 40% 2 05.11.2026 -
Pedro Bondo Famalicao Actif 125 / 126 40% 1 05.11.2026 -
Martín Tejón Maritimo Actif 108 / 122 40% 3 04.11.2026 -
Carlos Álvarez Club America Actif 139 / 141 40% 1 04.11.2026 -
Vitor Roque Palmeiras Perdu 140 / 156 40% 1 03.11.2026 Plus d'infos
Sorriso Famalicao Actif 126 / 131 40% 2 31.10.2026 -
Gustavo Silva Vitoria Guimaraes Actif 124 / 124 40% 1 31.10.2026 -
Samu Aghehowa AS Roma Actif 158 / 162 40% 1 27.10.2026 -
Nicolò Tresoldi Club Brugge Actif 121 / 142 40% 1 27.10.2026 -
Marcel Henry Tours Actif 141 / 153 40% 1 24.10.2026 -
Leander Openda Mouscron Actif 133 / 145 40% 1 24.10.2026 -
Gabriel Veron Porto Actif 115 / 135 40% 3 17.10.2026 -
Jean-Baptiste Gorby Braga Actif 141 / 132 40% 2 17.10.2026 -
Jalen Blesa Rio Ave Actif 122 / 127 40% 1 14.10.2026 -
Dawda Camara Alverca Actif 108 / 123 40% 1 14.10.2026 -
Iván Fresneda Sporting CP Actif 132 / 145 40% 4 13.10.2026 -
Vinicinho Bragantino Actif 126 / 127 40% 1 12.10.2026 -
Lohann Doucet Vitoria Guimaraes Actif 109 / 113 40% 1 12.10.2026 -
Manuel Ospina Cortulua Actif 122 / 118 40% 1 11.10.2026 -
Fotis Ioannidis Rio Ave Actif 146 / 129 40% 1 11.10.2026 -
Alfonso Trezza Arouca Actif 118 / 128 40% 1 09.10.2026 -
Tadeo Allende Inter Miami CF Actif 132 / 128 40% 1 05.10.2026 -
Ozziel Herrera Tigres Actif 134 / 130 40% 1 30.09.2026 -
Luca Langoni New England Revolution Actif 123 / 131 40% 1 29.09.2026 -
Márcio Mendes Pandurii Actif 134 / 130 40% 2 28.09.2026 -
Rodrigo Pinheiro Famalicao Actif 126 / 137 40% 1 28.09.2026 -
Zé Leite Leixões Actif 121 / 123 40% 1 24.09.2026 -
Favio Cabral Mitre Actif 114 / 121 40% 1 12.09.2026 -
Vangelis Pavlidis Twente Actif 152 / 160 40% 1 12.09.2026 -
Elliot Anderson Manchester City Actif 149 / 156 40% 1 10.09.2026 -
Martinelli Fluminense Actif 142 / 134 40% 1 10.09.2026 -
Mathias De Amorim Famalicao Actif 118 / 142 40% 2 08.09.2026 -
Gianluca Prestianni Benfica Actif 124 / 128 40% 1 01.09.2026 -
Victor Froholdt Porto Actif 143 / 151 40% 1 30.08.2026 -
Luís Guilherme Sporting CP Actif 134 / 128 40% 1 30.08.2026 -
Gabri Veiga Porto Actif 151 / 160 40% 1 22.08.2026 -
Mateo Tanlongo Sporting CP Actif 110 / 125 40% 1 16.08.2026 -
Samuel Dahl Benfica Actif 133 / 132 40% 1 16.08.2026 -
Diogo Travassos Braga Actif 110 / 121 40% 1 01.08.2026 -
Alberto Costa Porto Actif 128 / 146 40% 1 01.08.2026 -